Time;durP1;ratioP1;P1;durP2;ratioP2;P2;SDS_P1;SDS_P2;PMS_P1;PMS_P2;Temp;Humidity;BMP_temperature;BMP_pressure;BME280_temperature;BME280_humidity;BME280_pressure;Samples;Min_cycle;Max_cycle;Signal;HPM_P1;HPM_P2
2023/05/02 00:00:20;;;;;;;7.45;5.43;;;15.90;84.80;;;;;;10752822;33;20059;-71
2023/05/02 00:06:26;;;;;;;6.43;5.22;;;15.90;84.80;;;;;;10752245;33;20059;-73
2023/05/02 00:12:28;;;;;;;5.57;3.47;;;15.80;85.00;;;;;;10750291;33;20020;-71
2023/05/02 00:18:45;;;;;;;5.05;3.62;;;15.70;85.20;;;;;;10751240;33;20012;-71
2023/05/02 00:24:47;;;;;;;5.50;4.10;;;15.70;85.30;;;;;;10736269;33;20024;-71
2023/05/02 00:30:49;;;;;;;6.05;4.05;;;15.80;85.40;;;;;;10752044;33;20004;-71
2023/05/02 00:36:50;;;;;;;4.37;2.85;;;15.70;85.30;;;;;;10738005;33;20297;-72
2023/05/02 00:42:52;;;;;;;4.22;2.80;;;15.70;85.40;;;;;;10747481;33;20300;-71
2023/05/02 00:48:56;;;;;;;4.82;3.05;;;15.70;85.20;;;;;;10750753;33;20389;-72
2023/05/02 00:55:00;;;;;;;5.87;3.97;;;15.70;85.20;;;;;;10758212;33;20012;-72
2023/05/02 01:01:25;;;;;;;3.40;2.50;;;15.70;85.00;;;;;;10755849;33;20024;-72
2023/05/02 01:07:29;;;;;;;5.85;2.78;;;15.70;85.00;;;;;;10757197;33;20025;-72
2023/05/02 01:13:34;;;;;;;4.68;3.55;;;15.60;85.30;;;;;;10755715;33;20020;-72
2023/05/02 01:19:39;;;;;;;4.78;3.65;;;15.60;85.50;;;;;;10755935;33;20055;-72
2023/05/02 01:26:12;;;;;;;5.60;3.15;;;15.50;85.50;;;;;;10754285;33;20047;-72
2023/05/02 01:32:18;;;;;;;4.45;3.08;;;15.50;85.60;;;;;;10753469;33;20375;-72
2023/05/02 01:38:41;;;;;;;5.18;3.75;;;15.40;85.70;;;;;;10756405;33;20390;-72
2023/05/02 01:44:46;;;;;;;3.90;2.95;;;15.40;85.80;;;;;;10756668;33;20025;-72
2023/05/02 01:50:49;;;;;;;4.65;3.17;;;15.50;85.90;;;;;;10754753;33;20017;-72
2023/05/02 01:56:51;;;;;;;2.90;2.58;;;15.50;86.00;;;;;;10755334;33;20110;-73
2023/05/02 02:02:59;;;;;;;3.33;2.67;;;15.50;85.70;;;;;;10756034;33;20028;-73
2023/05/02 02:09:02;;;;;;;2.55;1.90;;;15.50;85.80;;;;;;10741700;33;20032;-73
2023/05/02 02:15:26;;;;;;;2.60;2.10;;;15.70;85.60;;;;;;10754762;33;20083;-72
2023/05/02 02:21:31;;;;;;;2.90;2.30;;;15.70;85.20;;;;;;10752089;33;20036;-74
2023/05/02 02:27:33;;;;;;;3.47;2.72;;;15.70;85.10;;;;;;10736688;33;20028;-73
2023/05/02 02:33:35;;;;;;;3.22;2.15;;;15.70;85.20;;;;;;10752521;33;20049;-73
2023/05/02 02:39:49;;;;;;;3.05;2.17;;;15.70;85.40;;;;;;10742135;33;20029;-73
2023/05/02 02:46:22;;;;;;;3.10;2.53;;;15.70;85.50;;;;;;10751923;33;20047;-72
2023/05/02 02:52:49;;;;;;;3.75;2.17;;;15.70;85.40;;;;;;10753367;33;20043;-72
2023/05/02 02:59:11;;;;;;;3.05;2.25;;;15.70;85.50;;;;;;10754024;33;20047;-73
2023/05/02 03:05:15;;;;;;;4.30;2.75;;;15.70;85.60;;;;;;10754493;33;20025;-74
2023/05/02 03:11:45;;;;;;;4.28;2.37;;;15.70;85.70;;;;;;10752714;33;20052;-73
2023/05/02 03:17:48;;;;;;;2.95;2.20;;;15.70;85.70;;;;;;10738190;33;20059;-72
2023/05/02 03:24:14;;;;;;;3.67;2.47;;;15.60;85.70;;;;;;10751691;33;20037;-72
2023/05/02 03:30:16;;;;;;;1.90;1.60;;;15.60;85.90;;;;;;10751232;33;20051;-72
2023/05/02 03:36:18;;;;;;;2.83;2.08;;;15.50;85.90;;;;;;10753020;33;20028;-73
2023/05/02 03:42:22;;;;;;;2.50;1.80;;;15.50;86.10;;;;;;10749596;33;20391;-73
2023/05/02 03:48:26;;;;;;;2.85;2.40;;;15.50;86.10;;;;;;10753891;33;20064;-73
2023/05/02 03:54:31;;;;;;;2.42;1.92;;;15.60;86.10;;;;;;10748636;33;20020;-73
2023/05/02 04:00:34;;;;;;;2.78;1.70;;;15.60;86.00;;;;;;10751771;33;20032;-74
2023/05/02 04:06:37;;;;;;;3.50;2.35;;;15.60;85.90;;;;;;10751603;33;20021;-73
2023/05/02 04:12:40;;;;;;;5.07;3.20;;;15.60;86.00;;;;;;10748902;33;20051;-72
2023/05/02 04:18:43;;;;;;;5.57;3.95;;;15.60;86.00;;;;;;10752485;33;20058;-73
2023/05/02 04:24:45;;;;;;;3.85;2.97;;;15.60;85.90;;;;;;10748374;33;20082;-73
2023/05/02 04:30:51;;;;;;;3.62;2.70;;;15.60;86.00;;;;;;10734295;33;20029;-73
2023/05/02 04:37:01;;;;;;;4.60;3.42;;;15.60;86.00;;;;;;10739638;33;20437;-73
2023/05/02 04:43:08;;;;;;;4.03;2.58;;;15.50;86.10;;;;;;10737443;33;20067;-73
2023/05/02 04:49:12;;;;;;;6.70;3.60;;;15.50;86.10;;;;;;10750432;33;20032;-72
2023/05/02 04:55:14;;;;;;;3.85;2.30;;;15.50;86.20;;;;;;10750475;33;20174;-73
2023/05/02 05:01:18;;;;;;;3.45;2.60;;;15.50;86.20;;;;;;10750354;33;20048;-72
2023/05/02 05:07:21;;;;;;;3.42;2.22;;;15.50;86.20;;;;;;10750700;33;20017;-73
2023/05/02 05:13:24;;;;;;;2.55;1.98;;;15.50;86.30;;;;;;10750037;33;20013;-73
2023/05/02 05:19:26;;;;;;;3.70;2.28;;;15.50;86.30;;;;;;10733760;33;20028;-73
2023/05/02 05:25:30;;;;;;;3.72;2.62;;;15.50;86.30;;;;;;10748292;33;20051;-73
2023/05/02 05:31:32;;;;;;;7.53;2.83;;;15.40;86.40;;;;;;10749705;33;20020;-72
2023/05/02 05:37:38;;;;;;;2.67;2.20;;;15.30;86.40;;;;;;10751687;33;20437;-73
2023/05/02 05:44:04;;;;;;;3.00;2.50;;;15.40;86.50;;;;;;10755422;33;20398;-73
2023/05/02 05:50:07;;;;;;;6.43;2.12;;;15.30;86.50;;;;;;10741859;33;20040;-73
2023/05/02 05:56:11;;;;;;;4.20;2.97;;;15.30;86.50;;;;;;10755213;33;20331;-73
2023/05/02 06:02:15;;;;;;;3.55;2.92;;;15.30;86.70;;;;;;10738844;33;20067;-73
2023/05/02 06:08:20;;;;;;;3.12;2.40;;;15.30;86.60;;;;;;10738726;32;20036;-73
2023/05/02 06:14:23;;;;;;;2.70;2.08;;;15.30;86.70;;;;;;10718201;33;20403;-73
2023/05/02 06:20:26;;;;;;;5.28;3.62;;;15.30;86.70;;;;;;10718167;33;20021;-73
2023/05/02 06:26:28;;;;;;;3.85;2.83;;;15.30;86.80;;;;;;10731553;33;20437;-74
2023/05/02 06:32:31;;;;;;;5.62;4.25;;;15.30;86.80;;;;;;10751702;33;20050;-74
2023/05/02 06:38:33;;;;;;;6.75;5.15;;;15.30;86.90;;;;;;10752975;33;20037;-74
2023/05/02 06:44:35;;;;;;;5.47;4.60;;;15.30;87.00;;;;;;10752219;33;20468;-76
2023/05/02 06:50:45;;;;;;;4.05;3.05;;;15.30;86.80;;;;;;10753922;33;20032;-74
2023/05/02 06:56:47;;;;;;;3.55;2.55;;;15.30;86.80;;;;;;10752470;33;20054;-74
2023/05/02 07:03:11;;;;;;;4.68;3.58;;;15.30;87.00;;;;;;10772827;32;20055;-74
2023/05/02 07:09:14;;;;;;;4.60;2.92;;;15.30;87.00;;;;;;10787306;33;20024;-74
2023/05/02 07:15:16;;;;;;;3.42;2.92;;;15.30;87.00;;;;;;10790934;33;20020;-74
2023/05/02 07:21:38;;;;;;;3.62;2.60;;;15.30;87.10;;;;;;10773856;33;20058;-74
2023/05/02 07:27:40;;;;;;;4.20;2.70;;;15.30;87.10;;;;;;10776724;33;20051;-74
2023/05/02 07:33:42;;;;;;;3.72;2.65;;;15.40;87.10;;;;;;10789572;33;20024;-74
2023/05/02 07:39:44;;;;;;;4.75;2.62;;;15.50;87.10;;;;;;10788425;33;20028;-74
2023/05/02 07:45:46;;;;;;;3.75;2.80;;;15.50;86.90;;;;;;10775410;33;20032;-74
2023/05/02 07:51:48;;;;;;;4.10;2.33;;;15.40;87.00;;;;;;10761480;27;20319;-74
2023/05/02 07:57:50;;;;;;;4.32;2.97;;;15.40;87.20;;;;;;10752962;33;20040;-73
2023/05/02 08:03:52;;;;;;;3.58;2.50;;;15.40;87.30;;;;;;10752125;33;20024;-74
2023/05/02 08:09:54;;;;;;;2.78;2.00;;;15.40;87.40;;;;;;10881102;32;20084;-73
2023/05/02 08:15:59;;;;;;;4.12;2.70;;;15.40;87.30;;;;;;10905486;32;20047;-72
2023/05/02 08:22:01;;;;;;;5.40;2.72;;;15.40;87.30;;;;;;10900834;32;20050;-73
2023/05/02 08:28:03;;;;;;;3.03;2.08;;;15.40;87.40;;;;;;10901782;32;20019;-73
2023/05/02 08:34:05;;;;;;;1.45;1.10;;;15.50;87.50;;;;;;10901781;32;20050;-73
2023/05/02 08:40:11;;;;;;;5.75;2.28;;;15.50;87.40;;;;;;10904315;32;20085;-73
2023/05/02 08:46:15;;;;;;;1.83;1.50;;;15.60;87.50;;;;;;10901521;32;20024;-74
2023/05/02 08:52:19;;;;;;;2.40;1.80;;;15.60;87.40;;;;;;10904373;32;20443;-73
2023/05/02 08:58:21;;;;;;;3.30;2.42;;;15.70;87.40;;;;;;10904052;32;20038;-73
2023/05/02 09:04:28;;;;;;;4.32;2.08;;;15.70;87.50;;;;;;10898508;32;20053;-73
2023/05/02 09:10:31;;;;;;;4.15;2.83;;;15.70;87.40;;;;;;10901294;32;20050;-74
2023/05/02 09:16:38;;;;;;;3.08;2.17;;;15.70;87.50;;;;;;10907121;32;20010;-74
2023/05/02 09:22:49;;;;;;;2.33;1.83;;;15.70;87.50;;;;;;10908845;32;20027;-74
2023/05/02 09:28:55;;;;;;;4.20;2.60;;;15.80;87.60;;;;;;10909411;32;20034;-75
2023/05/02 09:35:06;;;;;;;4.00;3.08;;;15.80;87.50;;;;;;10911377;32;20044;-74
2023/05/02 09:41:09;;;;;;;3.67;3.05;;;15.90;87.70;;;;;;10907734;32;20058;-73
2023/05/02 09:47:25;;;;;;;3.83;2.15;;;15.80;87.70;;;;;;10910744;32;20314;-73
2023/05/02 09:53:27;;;;;;;5.87;3.45;;;15.90;87.90;;;;;;10909455;32;20108;-73
2023/05/02 09:59:29;;;;;;;4.18;2.92;;;16.00;88.00;;;;;;10909263;32;20015;-73
2023/05/02 10:05:33;;;;;;;5.07;2.37;;;16.00;87.80;;;;;;10909379;32;20023;-74
2023/05/02 10:11:46;;;;;;;2.72;2.25;;;16.20;87.70;;;;;;10906499;32;20073;-73
2023/05/02 10:17:49;;;;;;;3.87;2.67;;;16.20;87.70;;;;;;10908680;32;20027;-72
2023/05/02 10:23:52;;;;;;;3.00;2.30;;;16.30;87.60;;;;;;10909269;32;20019;-74
2023/05/02 10:29:57;;;;;;;3.22;2.47;;;16.30;87.60;;;;;;10909137;32;20038;-74
2023/05/02 10:36:00;;;;;;;3.05;2.15;;;16.30;87.60;;;;;;10894282;32;20031;-73
2023/05/02 10:42:04;;;;;;;2.67;2.22;;;16.30;87.60;;;;;;10765744;32;20035;-73
2023/05/02 10:48:13;;;;;;;2.90;2.15;;;16.30;87.60;;;;;;10736791;33;20090;-73
2023/05/02 10:54:18;;;;;;;2.65;2.03;;;16.30;87.30;;;;;;10753758;33;20048;-75
2023/05/02 11:00:21;;;;;;;3.45;1.98;;;16.30;87.40;;;;;;10754624;33;20331;-74
2023/05/02 11:06:27;;;;;;;2.50;1.35;;;16.30;87.20;;;;;;10753916;33;20343;-73
2023/05/02 11:12:49;;;;;;;10.73;1.95;;;16.30;87.00;;;;;;10751606;33;20029;-74
2023/05/02 11:18:59;;;;;;;1.73;1.40;;;16.30;86.80;;;;;;10753618;33;20415;-74
2023/05/02 11:25:04;;;;;;;1.55;1.17;;;16.20;86.70;;;;;;10782399;33;20028;-73
2023/05/02 11:31:09;;;;;;;1.67;1.15;;;16.20;86.90;;;;;;10789548;33;20047;-72
2023/05/02 11:37:14;;;;;;;5.40;1.67;;;16.20;87.00;;;;;;10786273;33;20024;-74
2023/05/02 11:43:18;;;;;;;2.20;1.52;;;16.20;86.90;;;;;;10774917;33;20075;-73
2023/05/02 11:49:20;;;;;;;1.95;1.60;;;16.20;86.90;;;;;;10789509;33;20017;-74
2023/05/02 11:55:22;;;;;;;1.50;1.40;;;16.30;86.70;;;;;;10786364;33;20432;-72
2023/05/02 12:01:24;;;;;;;1.12;0.95;;;16.30;86.90;;;;;;10789296;33;20028;-72
2023/05/02 12:07:44;;;;;;;2.53;1.58;;;16.30;87.10;;;;;;10786825;33;20056;-73
2023/05/02 12:13:48;;;;;;;2.92;1.87;;;16.30;87.20;;;;;;10789228;33;20017;-73
2023/05/02 12:19:50;;;;;;;2.30;1.52;;;16.30;87.20;;;;;;10789552;33;20024;-74
2023/05/02 12:25:53;;;;;;;1.30;1.20;;;16.30;87.10;;;;;;10788987;33;20386;-72
2023/05/02 12:31:55;;;;;;;2.22;1.23;;;16.40;87.10;;;;;;10769975;33;20047;-71
2023/05/02 12:38:29;;;;;;;2.33;1.92;;;16.50;87.00;;;;;;10787885;33;20070;-71
2023/05/02 12:44:42;;;;;;;2.95;1.95;;;16.60;87.00;;;;;;10860119;32;20394;-71
2023/05/02 12:50:44;;;;;;;2.08;1.80;;;16.50;87.00;;;;;;10870431;32;20039;-72
2023/05/02 12:56:47;;;;;;;2.03;1.80;;;16.60;86.90;;;;;;10871493;32;20226;-73
2023/05/02 13:02:49;;;;;;;2.00;1.50;;;16.60;86.90;;;;;;10871029;32;20032;-73
2023/05/02 13:08:51;;;;;;;2.58;1.75;;;16.60;87.20;;;;;;10870169;32;20303;-74
2023/05/02 13:14:53;;;;;;;1.92;1.55;;;16.50;87.30;;;;;;10870337;32;20024;-73
2023/05/02 13:20:55;;;;;;;1.62;1.40;;;16.50;87.30;;;;;;10794524;32;20025;-74
2023/05/02 13:26:57;;;;;;;3.58;1.98;;;16.50;87.10;;;;;;10793177;33;20025;-74
2023/05/02 13:33:00;;;;;;;1.73;1.30;;;16.40;87.00;;;;;;10759665;33;20430;-73
2023/05/02 13:39:02;;;;;;;1.50;1.30;;;16.40;87.00;;;;;;10749664;33;20339;-74
2023/05/02 13:45:05;;;;;;;1.95;1.45;;;16.40;87.10;;;;;;10733148;33;20025;-74
2023/05/02 13:51:07;;;;;;;2.00;1.40;;;16.30;87.00;;;;;;10738327;33;20098;-73
2023/05/02 13:57:10;;;;;;;1.92;1.30;;;16.30;87.00;;;;;;10753616;33;20032;-74
2023/05/02 14:03:12;;;;;;;1.05;0.93;;;16.30;87.30;;;;;;10769815;32;20063;-73
2023/05/02 14:09:15;;;;;;;1.33;1.20;;;16.30;87.20;;;;;;10751266;32;20382;-72
2023/05/02 14:15:18;;;;;;;1.80;1.30;;;16.40;87.30;;;;;;10753832;33;20079;-72
2023/05/02 14:21:20;;;;;;;1.00;0.90;;;16.40;87.30;;;;;;10764350;32;20033;-74
2023/05/02 14:27:22;;;;;;;2.53;1.02;;;16.50;87.20;;;;;;10773237;32;20044;-74
2023/05/02 14:33:25;;;;;;;1.42;1.27;;;16.50;87.20;;;;;;10705770;33;20037;-74
2023/05/02 14:39:27;;;;;;;0.90;0.90;;;16.50;87.10;;;;;;10719061;33;20134;-73
2023/05/02 14:45:29;;;;;;;1.20;1.10;;;16.50;86.90;;;;;;10718876;33;20037;-74
2023/05/02 14:51:31;;;;;;;2.25;1.65;;;16.60;87.00;;;;;;10715608;33;20055;-73
2023/05/02 14:57:34;;;;;;;1.15;1.08;;;16.60;87.30;;;;;;10763899;32;20051;-74
2023/05/02 15:03:36;;;;;;;2.40;1.80;;;16.60;87.20;;;;;;10788040;33;20050;-74
2023/05/02 15:09:41;;;;;;;1.27;1.17;;;16.70;87.20;;;;;;10790070;33;20296;-75
2023/05/02 15:15:45;;;;;;;1.48;1.15;;;16.70;87.00;;;;;;10787637;33;20415;-75
2023/05/02 15:21:48;;;;;;;1.58;1.30;;;16.70;86.90;;;;;;10772541;33;20092;-74
2023/05/02 15:27:51;;;;;;;1.75;1.23;;;16.70;86.80;;;;;;10785913;33;20043;-74
2023/05/02 15:33:53;;;;;;;1.10;1.00;;;16.70;86.70;;;;;;10789569;33;20025;-74
2023/05/02 15:39:55;;;;;;;1.98;1.12;;;16.70;86.70;;;;;;10788361;33;20017;-74
2023/05/02 15:45:58;;;;;;;1.77;1.10;;;16.70;86.60;;;;;;10766785;32;20060;-74
2023/05/02 15:52:01;;;;;;;1.67;1.00;;;16.80;86.40;;;;;;10059380;33;22041781;-75
2023/05/02 15:58:04;;;;;;;1.55;0.98;;;16.80;86.30;;;;;;10676248;33;20052;-74
2023/05/02 16:04:08;;;;;;;1.65;1.23;;;16.80;86.20;;;;;;10675424;33;20029;-74
2023/05/02 16:10:10;;;;;;;1.45;1.23;;;16.80;86.20;;;;;;10691407;33;20411;-74
2023/05/02 16:16:12;;;;;;;1.80;1.40;;;16.80;86.00;;;;;;10686165;33;20419;-74
2023/05/02 16:22:15;;;;;;;8.65;1.92;;;16.80;86.00;;;;;;10714779;33;20020;-74
2023/05/02 16:28:17;;;;;;;2.47;1.52;;;16.80;86.00;;;;;;10741794;33;20072;-74
2023/05/02 16:34:19;;;;;;;1.55;1.37;;;16.80;86.00;;;;;;10747343;33;20016;-74
2023/05/02 16:40:21;;;;;;;3.55;1.55;;;16.80;86.00;;;;;;10749816;33;20059;-74
2023/05/02 16:46:23;;;;;;;2.35;1.92;;;16.70;85.90;;;;;;10750432;33;20012;-74
2023/05/02 16:52:26;;;;;;;1.73;1.50;;;16.70;85.90;;;;;;10733004;33;20032;-73
2023/05/02 16:58:28;;;;;;;2.37;2.17;;;16.70;85.90;;;;;;10750820;33;20055;-75
2023/05/02 17:04:31;;;;;;;4.60;2.65;;;16.60;85.80;;;;;;10747995;33;20059;-74
2023/05/02 17:10:33;;;;;;;5.68;2.60;;;16.60;86.00;;;;;;10750141;33;20016;-74
2023/05/02 17:16:35;;;;;;;2.45;1.95;;;16.50;86.00;;;;;;10733859;33;20032;-74
2023/05/02 17:22:37;;;;;;;3.67;1.92;;;16.40;86.00;;;;;;10740815;33;20064;-75
2023/05/02 17:28:43;;;;;;;2.92;2.00;;;16.30;86.00;;;;;;10743914;33;20618;-74
2023/05/02 17:34:45;;;;;;;1.95;1.40;;;16.30;86.00;;;;;;10746508;33;20054;-74
2023/05/02 17:40:48;;;;;;;3.45;1.60;;;16.20;86.00;;;;;;10748354;33;20062;-74
2023/05/02 17:46:50;;;;;;;1.80;1.37;;;16.20;86.00;;;;;;10747323;33;20029;-74
2023/05/02 17:52:52;;;;;;;1.60;1.15;;;16.20;85.70;;;;;;10750258;33;20123;-74
2023/05/02 17:58:55;;;;;;;1.50;1.10;;;16.10;85.60;;;;;;10752377;33;20020;-74
2023/05/02 18:04:59;;;;;;;2.20;1.20;;;16.00;85.70;;;;;;10738107;33;20059;-74
2023/05/02 18:11:02;;;;;;;2.58;1.67;;;16.00;85.80;;;;;;10746943;33;20043;-74
2023/05/02 18:17:04;;;;;;;1.77;1.40;;;16.00;85.90;;;;;;10747727;33;20032;-74
2023/05/02 18:23:06;;;;;;;1.65;1.48;;;16.00;85.80;;;;;;10749201;33;20028;-74
2023/05/02 18:29:08;;;;;;;2.17;1.60;;;15.90;85.80;;;;;;10749387;33;20534;-75
2023/05/02 18:35:11;;;;;;;1.05;1.00;;;15.80;85.70;;;;;;10732497;33;20037;-75
2023/05/02 18:41:13;;;;;;;0.93;0.80;;;15.80;85.70;;;;;;10745542;33;20067;-74
2023/05/02 18:47:16;;;;;;;2.25;1.42;;;15.80;85.70;;;;;;10749570;33;20016;-74
2023/05/02 18:53:21;;;;;;;1.90;1.10;;;15.90;85.70;;;;;;10740487;33;20056;-74
2023/05/02 18:59:23;;;;;;;2.30;1.77;;;15.90;85.80;;;;;;10717406;33;20030;-74
2023/05/02 19:05:26;;;;;;;1.65;1.20;;;15.90;85.90;;;;;;10717445;33;20469;-74
2023/05/02 19:11:28;;;;;;;1.62;1.30;;;15.90;85.90;;;;;;10713867;33;20025;-74
2023/05/02 19:17:31;;;;;;;1.08;0.95;;;15.90;86.00;;;;;;10725737;33;20037;-74
2023/05/02 19:23:34;;;;;;;2.37;1.48;;;16.00;85.90;;;;;;10726848;33;20024;-74
2023/05/02 19:29:36;;;;;;;1.55;1.20;;;16.00;85.90;;;;;;10750048;33;20036;-74
2023/05/02 19:35:39;;;;;;;1.67;1.17;;;15.90;86.00;;;;;;10730276;33;20025;-73
2023/05/02 19:41:41;;;;;;;1.15;1.05;;;15.90;86.00;;;;;;10716710;33;20036;-73
2023/05/02 19:47:44;;;;;;;2.50;1.62;;;16.00;86.00;;;;;;10716676;33;20021;-74
2023/05/02 19:53:46;;;;;;;1.37;1.20;;;15.90;85.90;;;;;;10714414;33;20026;-73
2023/05/02 19:59:48;;;;;;;2.83;1.67;;;15.90;86.00;;;;;;10716984;33;20391;-73
2023/05/02 20:05:51;;;;;;;1.92;1.40;;;15.90;86.20;;;;;;10700414;33;20449;-73
2023/05/02 20:11:53;;;;;;;2.08;1.12;;;15.90;86.20;;;;;;10712172;33;20044;-74
2023/05/02 20:17:57;;;;;;;3.10;1.37;;;15.90;86.20;;;;;;10716573;33;20048;-74
2023/05/02 20:23:59;;;;;;;1.30;1.20;;;15.80;86.30;;;;;;10703392;33;20024;-74
2023/05/02 20:30:01;;;;;;;0.93;0.93;;;15.80;86.30;;;;;;10713352;33;20032;-75
2023/05/02 20:36:04;;;;;;;1.20;1.10;;;15.80;86.20;;;;;;10711780;33;20017;-74
2023/05/02 20:42:06;;;;;;;1.35;1.25;;;15.80;86.10;;;;;;10711842;33;20044;-74
2023/05/02 20:48:08;;;;;;;0.98;0.80;;;15.80;86.20;;;;;;10712189;33;20387;-74
2023/05/02 20:54:10;;;;;;;2.17;1.30;;;15.80;86.00;;;;;;10710645;33;20067;-75
2023/05/02 21:00:14;;;;;;;2.03;1.55;;;15.80;86.10;;;;;;10715412;33;20044;-74
2023/05/02 21:06:19;;;;;;;0.98;0.95;;;15.80;86.10;;;;;;10715307;33;20371;-74
2023/05/02 21:12:22;;;;;;;1.25;1.15;;;15.80;86.00;;;;;;10720656;33;20024;-74
2023/05/02 21:18:24;;;;;;;1.80;1.23;;;15.80;86.10;;;;;;10695660;33;20330;-74
2023/05/02 21:24:26;;;;;;;1.37;1.08;;;15.80;86.20;;;;;;10721265;33;20056;-74
2023/05/02 21:30:28;;;;;;;1.30;1.20;;;15.70;86.20;;;;;;10719261;33;20033;-74
2023/05/02 21:36:31;;;;;;;1.10;1.00;;;15.70;86.50;;;;;;10720416;33;20021;-74
2023/05/02 21:42:33;;;;;;;1.37;1.27;;;15.70;86.60;;;;;;10720731;33;20020;-73
2023/05/02 21:48:35;;;;;;;1.85;1.12;;;15.60;86.60;;;;;;10720746;33;20383;-73
2023/05/02 21:54:38;;;;;;;3.35;1.42;;;15.70;86.60;;;;;;10719414;33;20492;-72
2023/05/02 22:00:42;;;;;;;1.15;1.05;;;15.70;86.60;;;;;;10716361;33;20033;-73
2023/05/02 22:06:50;;;;;;;2.50;1.17;;;15.70;86.60;;;;;;10716734;33;20029;-73
2023/05/02 22:12:52;;;;;;;1.10;0.93;;;15.60;86.60;;;;;;10719520;33;20021;-74
2023/05/02 22:18:56;;;;;;;1.87;0.93;;;15.60;86.70;;;;;;10702677;33;20426;-74
2023/05/02 22:25:01;;;;;;;2.33;1.30;;;15.60;86.80;;;;;;10715897;33;20025;-74
2023/05/02 22:31:04;;;;;;;3.87;2.03;;;15.60;86.70;;;;;;10705195;33;20025;-75
2023/05/02 22:37:07;;;;;;;1.83;1.62;;;15.60;86.60;;;;;;10718226;33;20020;-74
2023/05/02 22:43:09;;;;;;;2.65;1.80;;;15.70;86.50;;;;;;10719120;33;20016;-75
2023/05/02 22:49:11;;;;;;;1.80;1.50;;;15.70;86.60;;;;;;10717317;33;20391;-75
2023/05/02 22:55:13;;;;;;;1.48;1.37;;;15.70;86.80;;;;;;10718195;33;20021;-74
2023/05/02 23:01:15;;;;;;;1.50;1.20;;;15.60;86.70;;;;;;10718093;33;20036;-74
2023/05/02 23:07:17;;;;;;;3.95;2.87;;;15.60;86.70;;;;;;10715343;33;20550;-74
2023/05/02 23:13:19;;;;;;;4.47;3.15;;;15.60;86.60;;;;;;10715472;33;20367;-74
2023/05/02 23:19:21;;;;;;;3.55;1.90;;;15.60;86.60;;;;;;10718291;33;20422;-74
2023/05/02 23:25:26;;;;;;;2.97;2.10;;;15.60;86.60;;;;;;10717273;33;20335;-74
2023/05/02 23:31:28;;;;;;;5.15;3.37;;;15.60;86.60;;;;;;10717898;33;20448;-74
2023/05/02 23:37:32;;;;;;;3.28;2.42;;;15.50;86.60;;;;;;10702506;33;20399;-74
2023/05/02 23:43:35;;;;;;;2.80;1.87;;;15.60;86.60;;;;;;10714036;33;20033;-74
2023/05/02 23:49:37;;;;;;;4.95;2.70;;;15.60;86.60;;;;;;10725941;27;20472;-74
2023/05/02 23:55:38;;;;;;;5.95;4.00;;;15.60;86.70;;;;;;10749997;33;20066;-74
